Impacts METAR Board
IDs:

KIAD - Washington/Dulles In, VA, US

Updated at: 0500 UTC 21 Apr 2018
Potential Impact None Slight Moderate High
Time 20/17Z 20/18Z 20/19Z 20/20Z 20/21Z 20/22Z 20/23Z 21/00Z 21/01Z 21/02Z 21/03Z 21/04Z 21/05Z
Temp54 56 58 59 60 59 58 55 53 51 49 43 39
Dewpt23 23 25 25 26 24 25 24 26 26 26 27 30
Altim30.30 30.29 30.28 30.27 30.27 30.28 30.29 30.31 30.34 30.35 30.37 30.38 30.40
VIS10 10 10 10 10 10 10 10 10 10 10 10 10
CIG-- -- -- -- -- -- -- -- -- -- -- -- --
CoverCLRCLRCLRCLRCLRCLRCLRCLRCLRCLRCLRCLRCLR
FltCatVFRVFRVFRVFRVFRVFRVFRVFRVFRVFRVFRVFRVFR
WX--------------------------
WDir33034032032033033034034033033033000
WSpd14 13 12 13 11 12 14 13 9 8 6 0 3
WGst24 19 -- 20 20 21 -- -- -- -- -- -- --
Raw hourly METARs
KIAD 201652Z 33014G24KT 10SM CLR 12/M05 A3030 RMK AO2 SLP262 T01221050
KIAD 201752Z 34013G19KT 10SM CLR 13/M05 A3029 RMK AO2 PK WND 32026/1720 SLP259 T01331050 10133 20033 58008
KIAD 201852Z 32012KT 10SM CLR 14/M04 A3028 RMK AO2 PK WND 33027/1842 SLP253 T01441039
KIAD 201952Z 32013G20KT 10SM CLR 15/M04 A3027 RMK AO2 SLP249 T01501039
KIAD 202052Z 33011G20KT 10SM CLR 16/M03 A3027 RMK AO2 SLP250 T01561033 55008
KIAD 202152Z 33012G21KT 10SM CLR 15/M04 A3028 RMK AO2 SLP254 T01501044
KIAD 202252Z 34014KT 10SM CLR 14/M04 A3029 RMK AO2 SLP257 T01441039
KIAD 202352Z 34013KT 10SM CLR 13/M04 A3031 RMK AO2 SLP265 T01281044 10156 20128 53014
KIAD 210052Z 33009KT 10SM CLR 12/M03 A3034 RMK AO2 SLP273 T01171033
KIAD 210152Z 33008KT 10SM CLR 11/M03 A3035 RMK AO2 SLP279 T01061033
KIAD 210252Z 33006KT 10SM CLR 09/M03 A3037 RMK AO2 SLP284 T00941033 51020
KIAD 210352Z 00000KT 10SM CLR 06/M03 A3038 RMK AO2 SLP290 T00611028
KIAD 210452Z VRB03KT 10SM CLR 04/M01 A3040 RMK AO2 SLP295 T00391011 401561017



Page loaded:  05:52 UTC  |   10:52 PM Pacific  |   11:52 PM Mountain  |   12:52 AM Central  |   01:52 AM Eastern

 

ADVISORIES

FORECASTS

FORECASTS

OBSERVATIONS

USER TOOLS

ABOUT US